sensor_id;sensor_type;location;lat;lon;timestamp;temperature;humidity
9329;DHT22;4703;48.748;19.142;2023-03-09T00:01:23;4.80;99.90
9329;DHT22;4703;48.748;19.142;2023-03-09T00:03:51;5.80;99.90
9329;DHT22;4703;48.748;19.142;2023-03-09T00:06:19;4.80;99.90
9329;DHT22;4703;48.748;19.142;2023-03-09T00:08:46;7.00;99.90
9329;DHT22;4703;48.748;19.142;2023-03-09T00:11:15;4.70;99.90
9329;DHT22;4703;48.748;19.142;2023-03-09T00:13:46;4.70;99.90
9329;DHT22;4703;48.748;19.142;2023-03-09T00:16:17;4.70;99.90
9329;DHT22;4703;48.748;19.142;2023-03-09T00:18:47;7.30;99.90
9329;DHT22;4703;48.748;19.142;2023-03-09T00:21:14;4.70;99.90
9329;DHT22;4703;48.748;19.142;2023-03-09T00:24:12;4.70;99.90
9329;DHT22;4703;48.748;19.142;2023-03-09T00:26:43;4.80;99.90
9329;DHT22;4703;48.748;19.142;2023-03-09T00:29:20;7.40;99.90
9329;DHT22;4703;48.748;19.142;2023-03-09T00:31:49;6.80;99.90
9329;DHT22;4703;48.748;19.142;2023-03-09T00:34:16;4.80;99.90
9329;DHT22;4703;48.748;19.142;2023-03-09T00:36:43;4.80;99.90
9329;DHT22;4703;48.748;19.142;2023-03-09T00:39:13;4.70;99.90
9329;DHT22;4703;48.748;19.142;2023-03-09T00:41:41;4.70;99.90
9329;DHT22;4703;48.748;19.142;2023-03-09T00:44:10;4.70;99.90
9329;DHT22;4703;48.748;19.142;2023-03-09T00:46:38;4.70;99.90
9329;DHT22;4703;48.748;19.142;2023-03-09T00:49:06;4.70;99.90
9329;DHT22;4703;48.748;19.142;2023-03-09T00:51:37;4.70;99.90
9329;DHT22;4703;48.748;19.142;2023-03-09T00:54:05;4.70;99.90
9329;DHT22;4703;48.748;19.142;2023-03-09T00:56:32;4.70;99.90
9329;DHT22;4703;48.748;19.142;2023-03-09T00:58:59;4.70;99.90
9329;DHT22;4703;48.748;19.142;2023-03-09T01:01:27;4.80;99.90
9329;DHT22;4703;48.748;19.142;2023-03-09T01:03:54;7.10;99.90
9329;DHT22;4703;48.748;19.142;2023-03-09T01:06:24;4.80;99.90
9329;DHT22;4703;48.748;19.142;2023-03-09T01:08:52;7.90;99.90
9329;DHT22;4703;48.748;19.142;2023-03-09T01:11:19;4.80;99.90
9329;DHT22;4703;48.748;19.142;2023-03-09T01:13:46;7.70;99.90
9329;DHT22;4703;48.748;19.142;2023-03-09T01:16:14;4.80;99.90
9329;DHT22;4703;48.748;19.142;2023-03-09T01:18:41;4.80;99.90
9329;DHT22;4703;48.748;19.142;2023-03-09T01:21:08;4.80;99.90
9329;DHT22;4703;48.748;19.142;2023-03-09T01:23:37;4.70;99.90
9329;DHT22;4703;48.748;19.142;2023-03-09T01:26:05;7.10;99.90
9329;DHT22;4703;48.748;19.142;2023-03-09T01:28:34;4.70;99.90
9329;DHT22;4703;48.748;19.142;2023-03-09T01:31:09;7.50;99.90
9329;DHT22;4703;48.748;19.142;2023-03-09T01:33:38;4.80;99.90
9329;DHT22;4703;48.748;19.142;2023-03-09T01:36:07;4.70;99.90
9329;DHT22;4703;48.748;19.142;2023-03-09T01:38:35;4.80;99.90
9329;DHT22;4703;48.748;19.142;2023-03-09T01:41:03;4.80;99.90
9329;DHT22;4703;48.748;19.142;2023-03-09T01:43:38;4.80;99.90
9329;DHT22;4703;48.748;19.142;2023-03-09T01:52:20;4.70;99.90
9329;DHT22;4703;48.748;19.142;2023-03-09T01:55:01;4.70;99.90
9329;DHT22;4703;48.748;19.142;2023-03-09T01:57:40;4.70;99.90
9329;DHT22;4703;48.748;19.142;2023-03-09T02:00:18;4.70;99.90
9329;DHT22;4703;48.748;19.142;2023-03-09T02:02:58;4.70;99.90
9329;DHT22;4703;48.748;19.142;2023-03-09T02:05:33;4.60;99.90
9329;DHT22;4703;48.748;19.142;2023-03-09T02:08:03;4.60;99.90
9329;DHT22;4703;48.748;19.142;2023-03-09T02:10:37;4.70;99.90
9329;DHT22;4703;48.748;19.142;2023-03-09T02:13:14;4.70;99.90
9329;DHT22;4703;48.748;19.142;2023-03-09T02:15:42;5.80;99.90
9329;DHT22;4703;48.748;19.142;2023-03-09T02:18:09;4.60;99.90
9329;DHT22;4703;48.748;19.142;2023-03-09T02:20:43;4.70;99.90
9329;DHT22;4703;48.748;19.142;2023-03-09T02:26:07;4.60;99.90
9329;DHT22;4703;48.748;19.142;2023-03-09T02:28:38;4.50;99.90
9329;DHT22;4703;48.748;19.142;2023-03-09T02:31:06;4.50;99.90
9329;DHT22;4703;48.748;19.142;2023-03-09T02:33:34;4.40;99.90
9329;DHT22;4703;48.748;19.142;2023-03-09T02:36:01;4.40;99.90
9329;DHT22;4703;48.748;19.142;2023-03-09T02:38:28;5.80;99.90
9329;DHT22;4703;48.748;19.142;2023-03-09T02:40:58;5.90;99.90
9329;DHT22;4703;48.748;19.142;2023-03-09T02:43:34;4.40;99.90
9329;DHT22;4703;48.748;19.142;2023-03-09T02:46:10;4.30;99.90
9329;DHT22;4703;48.748;19.142;2023-03-09T02:48:37;4.30;99.90
9329;DHT22;4703;48.748;19.142;2023-03-09T02:51:04;4.30;99.90
9329;DHT22;4703;48.748;19.142;2023-03-09T02:53:33;4.30;99.90
9329;DHT22;4703;48.748;19.142;2023-03-09T02:56:01;4.10;99.90
9329;DHT22;4703;48.748;19.142;2023-03-09T02:58:28;4.10;99.90
9329;DHT22;4703;48.748;19.142;2023-03-09T03:00:55;7.40;99.90
9329;DHT22;4703;48.748;19.142;2023-03-09T03:03:23;4.30;99.90
9329;DHT22;4703;48.748;19.142;2023-03-09T03:05:50;4.30;99.90
9329;DHT22;4703;48.748;19.142;2023-03-09T03:08:17;4.30;99.90
9329;DHT22;4703;48.748;19.142;2023-03-09T03:11:01;4.30;99.90
9329;DHT22;4703;48.748;19.142;2023-03-09T03:13:28;4.30;99.90
9329;DHT22;4703;48.748;19.142;2023-03-09T03:15:59;4.40;99.90
9329;DHT22;4703;48.748;19.142;2023-03-09T03:18:27;4.40;99.90
9329;DHT22;4703;48.748;19.142;2023-03-09T03:20:54;4.40;99.90
9329;DHT22;4703;48.748;19.142;2023-03-09T03:23:21;7.40;99.90
9329;DHT22;4703;48.748;19.142;2023-03-09T03:25:49;6.30;99.90
9329;DHT22;4703;48.748;19.142;2023-03-09T03:28:16;4.40;99.90
9329;DHT22;4703;48.748;19.142;2023-03-09T03:30:49;4.40;99.90
9329;DHT22;4703;48.748;19.142;2023-03-09T03:33:17;4.40;99.90
9329;DHT22;4703;48.748;19.142;2023-03-09T03:35:44;4.50;99.90
9329;DHT22;4703;48.748;19.142;2023-03-09T03:38:12;4.40;99.90
9329;DHT22;4703;48.748;19.142;2023-03-09T03:40:39;4.40;99.90
9329;DHT22;4703;48.748;19.142;2023-03-09T03:43:05;4.40;99.90
9329;DHT22;4703;48.748;19.142;2023-03-09T03:45:32;7.00;99.90
9329;DHT22;4703;48.748;19.142;2023-03-09T03:48:00;4.30;99.90
9329;DHT22;4703;48.748;19.142;2023-03-09T03:50:27;4.40;99.90
9329;DHT22;4703;48.748;19.142;2023-03-09T03:52:54;4.40;99.90
9329;DHT22;4703;48.748;19.142;2023-03-09T03:55:21;7.50;99.90
9329;DHT22;4703;48.748;19.142;2023-03-09T03:57:48;4.40;99.90
9329;DHT22;4703;48.748;19.142;2023-03-09T04:00:16;4.40;99.90
9329;DHT22;4703;48.748;19.142;2023-03-09T04:02:45;4.40;99.90
9329;DHT22;4703;48.748;19.142;2023-03-09T04:05:13;4.40;99.90
9329;DHT22;4703;48.748;19.142;2023-03-09T04:07:40;7.30;99.90
9329;DHT22;4703;48.748;19.142;2023-03-09T04:10:08;4.50;99.90
9329;DHT22;4703;48.748;19.142;2023-03-09T04:12:35;4.50;99.90
9329;DHT22;4703;48.748;19.142;2023-03-09T04:15:03;4.50;99.90
9329;DHT22;4703;48.748;19.142;2023-03-09T04:17:31;4.60;99.90
9329;DHT22;4703;48.748;19.142;2023-03-09T04:19:58;4.60;99.90
9329;DHT22;4703;48.748;19.142;2023-03-09T04:22:25;4.50;99.90
9329;DHT22;4703;48.748;19.142;2023-03-09T04:24:52;4.50;99.90
9329;DHT22;4703;48.748;19.142;2023-03-09T04:27:19;4.60;99.90
9329;DHT22;4703;48.748;19.142;2023-03-09T04:29:46;7.20;99.90
9329;DHT22;4703;48.748;19.142;2023-03-09T04:32:13;4.60;99.90
9329;DHT22;4703;48.748;19.142;2023-03-09T04:34:40;4.60;99.90
9329;DHT22;4703;48.748;19.142;2023-03-09T04:37:07;7.00;99.90
9329;DHT22;4703;48.748;19.142;2023-03-09T04:39:34;4.60;99.90
9329;DHT22;4703;48.748;19.142;2023-03-09T04:42:01;4.60;99.90
9329;DHT22;4703;48.748;19.142;2023-03-09T04:44:28;7.00;99.90
9329;DHT22;4703;48.748;19.142;2023-03-09T04:46:55;4.60;99.90
9329;DHT22;4703;48.748;19.142;2023-03-09T04:49:23;4.60;99.90
9329;DHT22;4703;48.748;19.142;2023-03-09T04:51:50;5.70;99.90
9329;DHT22;4703;48.748;19.142;2023-03-09T04:54:17;4.60;99.90
9329;DHT22;4703;48.748;19.142;2023-03-09T04:56:44;4.60;99.90
9329;DHT22;4703;48.748;19.142;2023-03-09T04:59:10;4.60;99.90
9329;DHT22;4703;48.748;19.142;2023-03-09T05:01:37;4.60;99.90
9329;DHT22;4703;48.748;19.142;2023-03-09T05:04:04;6.30;99.90
9329;DHT22;4703;48.748;19.142;2023-03-09T05:06:32;4.60;99.90
9329;DHT22;4703;48.748;19.142;2023-03-09T05:08:59;4.60;99.90
9329;DHT22;4703;48.748;19.142;2023-03-09T05:11:26;4.70;99.90
9329;DHT22;4703;48.748;19.142;2023-03-09T05:13:53;4.70;99.90
9329;DHT22;4703;48.748;19.142;2023-03-09T05:16:20;4.60;99.90
9329;DHT22;4703;48.748;19.142;2023-03-09T05:18:51;7.50;99.90
9329;DHT22;4703;48.748;19.142;2023-03-09T05:21:18;4.60;99.90
9329;DHT22;4703;48.748;19.142;2023-03-09T05:23:45;7.00;99.90
9329;DHT22;4703;48.748;19.142;2023-03-09T05:26:12;6.80;99.90
9329;DHT22;4703;48.748;19.142;2023-03-09T05:28:39;4.60;99.90
9329;DHT22;4703;48.748;19.142;2023-03-09T05:31:08;7.10;99.90
9329;DHT22;4703;48.748;19.142;2023-03-09T05:33:37;4.60;99.90
9329;DHT22;4703;48.748;19.142;2023-03-09T05:36:14;4.60;99.90
9329;DHT22;4703;48.748;19.142;2023-03-09T05:38:46;4.60;99.90
9329;DHT22;4703;48.748;19.142;2023-03-09T05:41:14;6.30;99.90
9329;DHT22;4703;48.748;19.142;2023-03-09T05:43:41;4.60;99.90
9329;DHT22;4703;48.748;19.142;2023-03-09T05:46:10;4.60;99.90
9329;DHT22;4703;48.748;19.142;2023-03-09T05:48:38;4.50;99.90
9329;DHT22;4703;48.748;19.142;2023-03-09T05:51:05;4.60;99.90
9329;DHT22;4703;48.748;19.142;2023-03-09T05:53:34;4.60;99.90
9329;DHT22;4703;48.748;19.142;2023-03-09T05:56:03;4.60;99.90
9329;DHT22;4703;48.748;19.142;2023-03-09T05:58:30;4.70;99.90
9329;DHT22;4703;48.748;19.142;2023-03-09T06:00:57;4.70;99.90
9329;DHT22;4703;48.748;19.142;2023-03-09T06:03:25;4.70;99.90
9329;DHT22;4703;48.748;19.142;2023-03-09T06:06:04;7.60;99.90
9329;DHT22;4703;48.748;19.142;2023-03-09T06:08:32;4.70;99.90
9329;DHT22;4703;48.748;19.142;2023-03-09T06:10:59;4.70;99.90
9329;DHT22;4703;48.748;19.142;2023-03-09T06:13:28;4.70;99.90
9329;DHT22;4703;48.748;19.142;2023-03-09T06:15:55;4.70;99.90
9329;DHT22;4703;48.748;19.142;2023-03-09T06:18:22;4.70;99.90
9329;DHT22;4703;48.748;19.142;2023-03-09T06:20:49;7.10;99.90
9329;DHT22;4703;48.748;19.142;2023-03-09T06:23:16;4.80;99.90
9329;DHT22;4703;48.748;19.142;2023-03-09T06:25:43;7.40;99.90
9329;DHT22;4703;48.748;19.142;2023-03-09T06:28:10;7.10;99.90
9329;DHT22;4703;48.748;19.142;2023-03-09T06:30:40;4.70;99.90
9329;DHT22;4703;48.748;19.142;2023-03-09T06:33:07;4.70;99.90
9329;DHT22;4703;48.748;19.142;2023-03-09T06:35:34;4.70;99.90
9329;DHT22;4703;48.748;19.142;2023-03-09T06:38:02;4.70;99.90
9329;DHT22;4703;48.748;19.142;2023-03-09T06:40:32;4.70;99.90
9329;DHT22;4703;48.748;19.142;2023-03-09T06:42:59;4.80;99.90
9329;DHT22;4703;48.748;19.142;2023-03-09T06:45:27;4.80;99.90
9329;DHT22;4703;48.748;19.142;2023-03-09T06:47:56;4.80;99.90
9329;DHT22;4703;48.748;19.142;2023-03-09T06:50:24;6.40;99.90
9329;DHT22;4703;48.748;19.142;2023-03-09T06:52:52;4.90;99.90
9329;DHT22;4703;48.748;19.142;2023-03-09T06:55:19;4.80;99.90
9329;DHT22;4703;48.748;19.142;2023-03-09T06:57:47;4.80;99.90
9329;DHT22;4703;48.748;19.142;2023-03-09T07:00:15;4.80;99.90
9329;DHT22;4703;48.748;19.142;2023-03-09T07:02:42;4.80;99.90
9329;DHT22;4703;48.748;19.142;2023-03-09T07:05:10;4.90;99.90
9329;DHT22;4703;48.748;19.142;2023-03-09T07:07:37;4.80;99.90
9329;DHT22;4703;48.748;19.142;2023-03-09T07:10:05;4.90;99.90
9329;DHT22;4703;48.748;19.142;2023-03-09T07:12:33;4.90;99.90
9329;DHT22;4703;48.748;19.142;2023-03-09T07:15:00;7.80;99.90
9329;DHT22;4703;48.748;19.142;2023-03-09T07:17:26;4.90;99.90
9329;DHT22;4703;48.748;19.142;2023-03-09T07:19:53;7.50;99.90
9329;DHT22;4703;48.748;19.142;2023-03-09T07:22:20;6.80;99.90
9329;DHT22;4703;48.748;19.142;2023-03-09T07:24:48;5.00;99.90
9329;DHT22;4703;48.748;19.142;2023-03-09T07:27:15;5.00;99.90
9329;DHT22;4703;48.748;19.142;2023-03-09T07:29:42;5.10;99.90
9329;DHT22;4703;48.748;19.142;2023-03-09T07:32:09;5.10;99.90
9329;DHT22;4703;48.748;19.142;2023-03-09T07:34:36;5.10;99.90
9329;DHT22;4703;48.748;19.142;2023-03-09T07:37:04;6.10;99.90
9329;DHT22;4703;48.748;19.142;2023-03-09T07:39:31;5.30;99.90
9329;DHT22;4703;48.748;19.142;2023-03-09T07:41:58;5.40;99.90
9329;DHT22;4703;48.748;19.142;2023-03-09T07:44:25;5.50;99.90
9329;DHT22;4703;48.748;19.142;2023-03-09T07:46:54;5.60;99.90
9329;DHT22;4703;48.748;19.142;2023-03-09T07:49:21;5.60;99.90
9329;DHT22;4703;48.748;19.142;2023-03-09T07:51:49;7.50;99.90
9329;DHT22;4703;48.748;19.142;2023-03-09T07:54:16;5.70;99.90
9329;DHT22;4703;48.748;19.142;2023-03-09T07:56:43;5.70;99.90
9329;DHT22;4703;48.748;19.142;2023-03-09T07:59:14;6.30;99.90
9329;DHT22;4703;48.748;19.142;2023-03-09T08:01:42;5.60;99.90
9329;DHT22;4703;48.748;19.142;2023-03-09T08:04:09;6.10;99.90
9329;DHT22;4703;48.748;19.142;2023-03-09T08:06:40;5.70;99.90
9329;DHT22;4703;48.748;19.142;2023-03-09T08:09:11;5.80;99.90
9329;DHT22;4703;48.748;19.142;2023-03-09T08:11:41;5.80;99.90
9329;DHT22;4703;48.748;19.142;2023-03-09T08:14:11;5.80;99.90
9329;DHT22;4703;48.748;19.142;2023-03-09T08:16:38;5.80;99.90
9329;DHT22;4703;48.748;19.142;2023-03-09T08:19:05;5.80;99.90
9329;DHT22;4703;48.748;19.142;2023-03-09T08:21:32;5.90;99.90
9329;DHT22;4703;48.748;19.142;2023-03-09T08:23:59;8.20;99.90
9329;DHT22;4703;48.748;19.142;2023-03-09T08:26:26;5.80;99.90
9329;DHT22;4703;48.748;19.142;2023-03-09T08:28:53;8.80;99.90
9329;DHT22;4703;48.748;19.142;2023-03-09T08:31:20;5.90;99.90
9329;DHT22;4703;48.748;19.142;2023-03-09T08:33:48;5.90;99.90
9329;DHT22;4703;48.748;19.142;2023-03-09T08:36:19;5.90;99.90
9329;DHT22;4703;48.748;19.142;2023-03-09T08:38:48;3.80;99.90
9329;DHT22;4703;48.748;19.142;2023-03-09T08:41:16;5.90;99.90
9329;DHT22;4703;48.748;19.142;2023-03-09T08:43:45;5.90;99.90
9329;DHT22;4703;48.748;19.142;2023-03-09T08:46:13;5.90;99.90
9329;DHT22;4703;48.748;19.142;2023-03-09T08:48:41;8.40;99.90
9329;DHT22;4703;48.748;19.142;2023-03-09T08:51:10;6.10;99.90
9329;DHT22;4703;48.748;19.142;2023-03-09T08:53:37;6.10;99.90
9329;DHT22;4703;48.748;19.142;2023-03-09T08:56:06;6.20;99.90
9329;DHT22;4703;48.748;19.142;2023-03-09T08:58:35;6.20;99.90
9329;DHT22;4703;48.748;19.142;2023-03-09T09:01:07;7.90;99.90
9329;DHT22;4703;48.748;19.142;2023-03-09T09:03:36;7.90;99.90
9329;DHT22;4703;48.748;19.142;2023-03-09T09:06:11;6.30;99.90
9329;DHT22;4703;48.748;19.142;2023-03-09T09:08:41;6.40;99.90
9329;DHT22;4703;48.748;19.142;2023-03-09T09:11:11;6.40;99.90
9329;DHT22;4703;48.748;19.142;2023-03-09T09:13:39;6.40;99.90
9329;DHT22;4703;48.748;19.142;2023-03-09T09:16:09;8.90;99.90
9329;DHT22;4703;48.748;19.142;2023-03-09T09:18:38;6.50;99.90
9329;DHT22;4703;48.748;19.142;2023-03-09T09:21:09;6.60;99.90
9329;DHT22;4703;48.748;19.142;2023-03-09T09:23:39;8.50;99.90
9329;DHT22;4703;48.748;19.142;2023-03-09T09:26:08;6.60;99.90
9329;DHT22;4703;48.748;19.142;2023-03-09T09:28:35;6.60;99.90
9329;DHT22;4703;48.748;19.142;2023-03-09T09:31:03;6.60;99.90
9329;DHT22;4703;48.748;19.142;2023-03-09T09:33:33;6.60;99.90
9329;DHT22;4703;48.748;19.142;2023-03-09T09:36:05;6.60;99.90
9329;DHT22;4703;48.748;19.142;2023-03-09T09:38:36;6.60;99.90
9329;DHT22;4703;48.748;19.142;2023-03-09T09:41:26;6.60;99.90
9329;DHT22;4703;48.748;19.142;2023-03-09T09:44:01;6.70;99.90
9329;DHT22;4703;48.748;19.142;2023-03-09T09:46:31;6.80;99.90
9329;DHT22;4703;48.748;19.142;2023-03-09T09:49:01;9.00;99.90
9329;DHT22;4703;48.748;19.142;2023-03-09T10:00:34;7.60;99.90
9329;DHT22;4703;48.748;19.142;2023-03-09T10:03:27;7.70;99.90
9329;DHT22;4703;48.748;19.142;2023-03-09T10:09:09;7.90;99.90
9329;DHT22;4703;48.748;19.142;2023-03-09T10:11:44;8.00;99.90
9329;DHT22;4703;48.748;19.142;2023-03-09T10:14:34;8.10;99.90
9329;DHT22;4703;48.748;19.142;2023-03-09T10:17:24;8.10;99.90
9329;DHT22;4703;48.748;19.142;2023-03-09T10:19:53;8.20;99.90
9329;DHT22;4703;48.748;19.142;2023-03-09T10:22:24;8.20;99.90
9329;DHT22;4703;48.748;19.142;2023-03-09T10:24:54;8.20;99.90
9329;DHT22;4703;48.748;19.142;2023-03-09T10:27:42;8.20;99.90
9329;DHT22;4703;48.748;19.142;2023-03-09T10:32:47;8.10;99.90
9329;DHT22;4703;48.748;19.142;2023-03-09T10:35:40;9.40;99.90
9329;DHT22;4703;48.748;19.142;2023-03-09T10:38:14;8.10;99.90
9329;DHT22;4703;48.748;19.142;2023-03-09T10:40:48;8.00;99.90
9329;DHT22;4703;48.748;19.142;2023-03-09T10:43:30;10.30;99.90
9329;DHT22;4703;48.748;19.142;2023-03-09T10:48:38;9.50;99.90
9329;DHT22;4703;48.748;19.142;2023-03-09T10:51:32;7.90;99.90
9329;DHT22;4703;48.748;19.142;2023-03-09T10:54:23;7.90;99.90
9329;DHT22;4703;48.748;19.142;2023-03-09T10:56:53;9.10;99.90
9329;DHT22;4703;48.748;19.142;2023-03-09T10:59:26;7.80;99.90
9329;DHT22;4703;48.748;19.142;2023-03-09T11:01:57;7.80;99.90
9329;DHT22;4703;48.748;19.142;2023-03-09T11:09:48;7.80;99.90
9329;DHT22;4703;48.748;19.142;2023-03-09T11:12:37;7.70;99.90
9329;DHT22;4703;48.748;19.142;2023-03-09T11:15:25;7.70;99.90
9329;DHT22;4703;48.748;19.142;2023-03-09T11:18:01;7.70;99.90
9329;DHT22;4703;48.748;19.142;2023-03-09T11:20:36;7.70;99.90
9329;DHT22;4703;48.748;19.142;2023-03-09T11:31:39;8.00;99.90
9329;DHT22;4703;48.748;19.142;2023-03-09T11:34:30;7.70;99.90
9329;DHT22;4703;48.748;19.142;2023-03-09T11:39:48;7.70;99.90
9329;DHT22;4703;48.748;19.142;2023-03-09T11:42:28;7.70;99.90
9329;DHT22;4703;48.748;19.142;2023-03-09T11:44:57;10.00;99.90
9329;DHT22;4703;48.748;19.142;2023-03-09T11:47:32;7.90;99.90
9329;DHT22;4703;48.748;19.142;2023-03-09T11:50:11;9.10;99.90
9329;DHT22;4703;48.748;19.142;2023-03-09T11:52:47;8.00;99.90
9329;DHT22;4703;48.748;19.142;2023-03-09T11:55:27;8.30;99.90
9329;DHT22;4703;48.748;19.142;2023-03-09T11:58:00;8.10;99.90
9329;DHT22;4703;48.748;19.142;2023-03-09T12:00:33;8.20;99.90
9329;DHT22;4703;48.748;19.142;2023-03-09T12:03:12;8.10;99.90
9329;DHT22;4703;48.748;19.142;2023-03-09T12:05:50;8.20;99.90
9329;DHT22;4703;48.748;19.142;2023-03-09T12:08:30;8.20;99.90
9329;DHT22;4703;48.748;19.142;2023-03-09T12:11:41;8.20;99.90
9329;DHT22;4703;48.748;19.142;2023-03-09T12:14:46;9.60;99.90
9329;DHT22;4703;48.748;19.142;2023-03-09T12:17:23;8.40;99.90
9329;DHT22;4703;48.748;19.142;2023-03-09T12:19:54;8.50;99.90
9329;DHT22;4703;48.748;19.142;2023-03-09T12:22:35;8.60;99.90
9329;DHT22;4703;48.748;19.142;2023-03-09T12:25:05;8.80;99.90
9329;DHT22;4703;48.748;19.142;2023-03-09T12:27:34;8.80;99.90
9329;DHT22;4703;48.748;19.142;2023-03-09T12:30:30;10.80;99.90
9329;DHT22;4703;48.748;19.142;2023-03-09T12:33:01;9.20;99.90
9329;DHT22;4703;48.748;19.142;2023-03-09T12:38:17;9.30;99.90
9329;DHT22;4703;48.748;19.142;2023-03-09T12:40:49;10.60;99.90
9329;DHT22;4703;48.748;19.142;2023-03-09T12:45:47;11.70;99.90
9329;DHT22;4703;48.748;19.142;2023-03-09T12:48:29;9.20;99.90
9329;DHT22;4703;48.748;19.142;2023-03-09T12:54:18;9.20;99.90
9329;DHT22;4703;48.748;19.142;2023-03-09T12:56:46;9.10;99.90
9329;DHT22;4703;48.748;19.142;2023-03-09T12:59:18;9.20;99.90
9329;DHT22;4703;48.748;19.142;2023-03-09T13:01:48;9.20;99.90
9329;DHT22;4703;48.748;19.142;2023-03-09T13:04:26;9.20;99.90
9329;DHT22;4703;48.748;19.142;2023-03-09T13:09:35;9.30;99.90
9329;DHT22;4703;48.748;19.142;2023-03-09T13:12:16;9.40;99.90
9329;DHT22;4703;48.748;19.142;2023-03-09T13:20:23;9.90;99.90
9329;DHT22;4703;48.748;19.142;2023-03-09T13:23:15;10.10;99.90
9329;DHT22;4703;48.748;19.142;2023-03-09T13:25:55;10.30;99.90
9329;DHT22;4703;48.748;19.142;2023-03-09T13:28:40;10.50;99.90
9329;DHT22;4703;48.748;19.142;2023-03-09T13:31:21;10.70;99.90
9329;DHT22;4703;48.748;19.142;2023-03-09T13:33:53;10.80;99.90
9329;DHT22;4703;48.748;19.142;2023-03-09T13:36:25;10.90;99.90
9329;DHT22;4703;48.748;19.142;2023-03-09T13:38:56;11.90;99.90
9329;DHT22;4703;48.748;19.142;2023-03-09T13:41:32;12.40;99.90
9329;DHT22;4703;48.748;19.142;2023-03-09T13:43:59;11.40;99.90
9329;DHT22;4703;48.748;19.142;2023-03-09T13:46:32;12.50;99.90
9329;DHT22;4703;48.748;19.142;2023-03-09T13:49:34;11.10;99.90
9329;DHT22;4703;48.748;19.142;2023-03-09T13:52:04;11.30;99.90
9329;DHT22;4703;48.748;19.142;2023-03-09T13:54:37;11.50;99.90
9329;DHT22;4703;48.748;19.142;2023-03-09T13:57:20;11.30;99.90
9329;DHT22;4703;48.748;19.142;2023-03-09T14:02:45;11.30;99.90
9329;DHT22;4703;48.748;19.142;2023-03-09T14:08:02;12.80;99.90
9329;DHT22;4703;48.748;19.142;2023-03-09T14:10:39;11.20;99.90
9329;DHT22;4703;48.748;19.142;2023-03-09T14:13:18;11.70;99.90
9329;DHT22;4703;48.748;19.142;2023-03-09T14:16:02;11.00;99.90
9329;DHT22;4703;48.748;19.142;2023-03-09T14:18:39;11.00;99.90
9329;DHT22;4703;48.748;19.142;2023-03-09T14:21:25;12.60;99.90
9329;DHT22;4703;48.748;19.142;2023-03-09T14:24:30;11.10;99.90
9329;DHT22;4703;48.748;19.142;2023-03-09T14:27:30;11.20;99.90
9329;DHT22;4703;48.748;19.142;2023-03-09T14:30:27;11.20;99.90
9329;DHT22;4703;48.748;19.142;2023-03-09T14:33:02;11.30;99.90
9329;DHT22;4703;48.748;19.142;2023-03-09T14:35:36;11.50;99.90
9329;DHT22;4703;48.748;19.142;2023-03-09T14:38:20;11.50;99.90
9329;DHT22;4703;48.748;19.142;2023-03-09T14:40:58;11.60;99.90
9329;DHT22;4703;48.748;19.142;2023-03-09T14:43:32;12.60;99.90
9329;DHT22;4703;48.748;19.142;2023-03-09T14:48:37;12.90;99.90
9329;DHT22;4703;48.748;19.142;2023-03-09T14:51:12;12.40;99.90
9329;DHT22;4703;48.748;19.142;2023-03-09T14:56:34;11.60;99.90
9329;DHT22;4703;48.748;19.142;2023-03-09T14:59:10;12.00;99.90
9329;DHT22;4703;48.748;19.142;2023-03-09T15:01:44;11.60;99.90
9329;DHT22;4703;48.748;19.142;2023-03-09T15:04:26;11.50;99.90
9329;DHT22;4703;48.748;19.142;2023-03-09T15:06:54;11.40;99.90
9329;DHT22;4703;48.748;19.142;2023-03-09T15:09:21;12.80;99.90
9329;DHT22;4703;48.748;19.142;2023-03-09T15:11:49;11.20;99.90
9329;DHT22;4703;48.748;19.142;2023-03-09T15:14:32;12.70;99.90
9329;DHT22;4703;48.748;19.142;2023-03-09T15:17:03;11.10;99.90
9329;DHT22;4703;48.748;19.142;2023-03-09T15:19:31;11.00;99.90
9329;DHT22;4703;48.748;19.142;2023-03-09T15:21:59;11.90;99.90
9329;DHT22;4703;48.748;19.142;2023-03-09T15:24:28;12.30;99.90
9329;DHT22;4703;48.748;19.142;2023-03-09T15:26:59;12.50;99.90
9329;DHT22;4703;48.748;19.142;2023-03-09T15:29:26;11.20;99.90
9329;DHT22;4703;48.748;19.142;2023-03-09T15:31:53;10.70;99.90
9329;DHT22;4703;48.748;19.142;2023-03-09T15:34:20;12.50;99.90
9329;DHT22;4703;48.748;19.142;2023-03-09T15:36:47;12.60;99.90
9329;DHT22;4703;48.748;19.142;2023-03-09T15:39:14;12.10;99.90
9329;DHT22;4703;48.748;19.142;2023-03-09T15:41:41;13.00;99.90
9329;DHT22;4703;48.748;19.142;2023-03-09T15:44:08;11.10;99.90
9329;DHT22;4703;48.748;19.142;2023-03-09T15:46:35;11.90;99.90
9329;DHT22;4703;48.748;19.142;2023-03-09T15:49:08;12.10;99.90
9329;DHT22;4703;48.748;19.142;2023-03-09T15:51:36;13.40;99.90
9329;DHT22;4703;48.748;19.142;2023-03-09T15:54:04;10.90;99.90
9329;DHT22;4703;48.748;19.142;2023-03-09T15:56:31;10.80;99.90
9329;DHT22;4703;48.748;19.142;2023-03-09T15:58:59;12.50;99.90
9329;DHT22;4703;48.748;19.142;2023-03-09T16:01:26;10.60;99.90
9329;DHT22;4703;48.748;19.142;2023-03-09T16:03:55;12.20;99.90
9329;DHT22;4703;48.748;19.142;2023-03-09T16:06:22;12.30;99.90
9329;DHT22;4703;48.748;19.142;2023-03-09T16:08:49;10.30;99.90
9329;DHT22;4703;48.748;19.142;2023-03-09T16:11:17;10.30;99.90
9329;DHT22;4703;48.748;19.142;2023-03-09T16:13:44;11.80;99.90
9329;DHT22;4703;48.748;19.142;2023-03-09T16:16:14;12.50;99.90
9329;DHT22;4703;48.748;19.142;2023-03-09T16:18:42;11.60;99.90
9329;DHT22;4703;48.748;19.142;2023-03-09T16:21:09;11.80;99.90
9329;DHT22;4703;48.748;19.142;2023-03-09T16:23:36;10.10;99.90
9329;DHT22;4703;48.748;19.142;2023-03-09T16:26:03;10.80;99.90
9329;DHT22;4703;48.748;19.142;2023-03-09T16:28:30;9.70;99.90
9329;DHT22;4703;48.748;19.142;2023-03-09T16:30:57;11.10;99.90
9329;DHT22;4703;48.748;19.142;2023-03-09T16:33:24;10.80;99.90
9329;DHT22;4703;48.748;19.142;2023-03-09T16:35:59;10.20;99.90
9329;DHT22;4703;48.748;19.142;2023-03-09T16:38:27;9.50;99.90
9329;DHT22;4703;48.748;19.142;2023-03-09T16:40:54;11.70;99.90
9329;DHT22;4703;48.748;19.142;2023-03-09T16:43:22;10.70;99.90
9329;DHT22;4703;48.748;19.142;2023-03-09T16:45:52;9.40;99.90
9329;DHT22;4703;48.748;19.142;2023-03-09T16:48:22;9.40;99.90
9329;DHT22;4703;48.748;19.142;2023-03-09T16:50:53;10.20;99.90
9329;DHT22;4703;48.748;19.142;2023-03-09T16:53:21;11.30;99.90
9329;DHT22;4703;48.748;19.142;2023-03-09T16:56:03;9.40;99.90
9329;DHT22;4703;48.748;19.142;2023-03-09T16:58:33;9.30;99.90
9329;DHT22;4703;48.748;19.142;2023-03-09T17:01:01;11.20;99.90
9329;DHT22;4703;48.748;19.142;2023-03-09T17:03:28;11.50;99.90
9329;DHT22;4703;48.748;19.142;2023-03-09T17:05:55;9.80;99.90
9329;DHT22;4703;48.748;19.142;2023-03-09T17:08:24;12.00;99.90
9329;DHT22;4703;48.748;19.142;2023-03-09T17:10:54;10.80;99.90
9329;DHT22;4703;48.748;19.142;2023-03-09T17:13:21;9.20;99.90
9329;DHT22;4703;48.748;19.142;2023-03-09T17:15:48;9.70;99.90
9329;DHT22;4703;48.748;19.142;2023-03-09T17:18:15;9.80;99.90
9329;DHT22;4703;48.748;19.142;2023-03-09T17:20:47;11.40;99.90
9329;DHT22;4703;48.748;19.142;2023-03-09T17:23:15;9.10;99.90
9329;DHT22;4703;48.748;19.142;2023-03-09T17:25:43;10.30;99.90
9329;DHT22;4703;48.748;19.142;2023-03-09T17:28:10;9.10;99.90
9329;DHT22;4703;48.748;19.142;2023-03-09T17:30:38;11.70;99.90
9329;DHT22;4703;48.748;19.142;2023-03-09T17:33:17;10.00;99.90